sensor_id;sensor_type;location;lat;lon;timestamp;temperature;humidity
77277;DHT22;66330;52.166;9.978;2023-11-21T00:01:54;10.10;85.20
77277;DHT22;66330;52.166;9.978;2023-11-21T00:04:20;10.10;85.20
77277;DHT22;66330;52.166;9.978;2023-11-21T00:06:46;9.70;86.20
77277;DHT22;66330;52.166;9.978;2023-11-21T00:09:13;10.10;85.10
77277;DHT22;66330;52.166;9.978;2023-11-21T00:11:41;10.20;85.20
77277;DHT22;66330;52.166;9.978;2023-11-21T00:14:06;10.10;85.00
77277;DHT22;66330;52.166;9.978;2023-11-21T00:16:33;10.10;84.90
77277;DHT22;66330;52.166;9.978;2023-11-21T00:18:59;10.10;85.00
77277;DHT22;66330;52.166;9.978;2023-11-21T00:21:25;9.60;85.60
77277;DHT22;66330;52.166;9.978;2023-11-21T00:23:50;10.10;85.00
77277;DHT22;66330;52.166;9.978;2023-11-21T00:26:16;10.10;85.00
77277;DHT22;66330;52.166;9.978;2023-11-21T00:28:42;10.30;85.20
77277;DHT22;66330;52.166;9.978;2023-11-21T00:31:08;10.30;85.20
77277;DHT22;66330;52.166;9.978;2023-11-21T00:33:33;10.40;85.30
77277;DHT22;66330;52.166;9.978;2023-11-21T00:35:59;10.30;85.10
77277;DHT22;66330;52.166;9.978;2023-11-21T00:38:26;10.30;85.10
77277;DHT22;66330;52.166;9.978;2023-11-21T00:40:53;10.30;85.10
77277;DHT22;66330;52.166;9.978;2023-11-21T00:43:22;10.30;85.00
77277;DHT22;66330;52.166;9.978;2023-11-21T00:45:48;10.40;85.10
77277;DHT22;66330;52.166;9.978;2023-11-21T00:48:14;10.10;84.70
77277;DHT22;66330;52.166;9.978;2023-11-21T00:50:40;10.40;85.00
77277;DHT22;66330;52.166;9.978;2023-11-21T00:53:06;10.50;85.10
77277;DHT22;66330;52.166;9.978;2023-11-21T00:55:32;10.40;85.10
77277;DHT22;66330;52.166;9.978;2023-11-21T00:57:58;10.40;85.10
77277;DHT22;66330;52.166;9.978;2023-11-21T01:00:25;10.50;85.10
77277;DHT22;66330;52.166;9.978;2023-11-21T01:02:50;10.50;85.10
77277;DHT22;66330;52.166;9.978;2023-11-21T01:05:16;10.30;84.80
77277;DHT22;66330;52.166;9.978;2023-11-21T01:07:42;10.40;84.80
77277;DHT22;66330;52.166;9.978;2023-11-21T01:10:08;10.60;84.90
77277;DHT22;66330;52.166;9.978;2023-11-21T01:12:35;10.00;84.30
77277;DHT22;66330;52.166;9.978;2023-11-21T01:15:03;10.50;84.50
77277;DHT22;66330;52.166;9.978;2023-11-21T01:17:29;10.00;84.50
77277;DHT22;66330;52.166;9.978;2023-11-21T01:19:54;10.50;84.90
77277;DHT22;66330;52.166;9.978;2023-11-21T01:22:21;10.40;85.00
77277;DHT22;66330;52.166;9.978;2023-11-21T01:24:51;10.10;84.80
77277;DHT22;66330;52.166;9.978;2023-11-21T01:27:17;10.30;85.10
77277;DHT22;66330;52.166;9.978;2023-11-21T01:29:42;10.50;85.30
77277;DHT22;66330;52.166;9.978;2023-11-21T01:32:08;10.50;85.20
77277;DHT22;66330;52.166;9.978;2023-11-21T01:34:34;10.60;85.30
77277;DHT22;66330;52.166;9.978;2023-11-21T01:36:59;10.50;85.10
77277;DHT22;66330;52.166;9.978;2023-11-21T01:39:28;10.60;85.20
77277;DHT22;66330;52.166;9.978;2023-11-21T01:41:53;10.70;85.20
77277;DHT22;66330;52.166;9.978;2023-11-21T01:44:19;10.50;85.00
77277;DHT22;66330;52.166;9.978;2023-11-21T01:46:45;10.70;85.20
77277;DHT22;66330;52.166;9.978;2023-11-21T01:49:13;10.60;85.00
77277;DHT22;66330;52.166;9.978;2023-11-21T01:51:42;10.40;84.90
77277;DHT22;66330;52.166;9.978;2023-11-21T01:54:09;10.70;85.10
77277;DHT22;66330;52.166;9.978;2023-11-21T01:56:35;10.70;85.00
77277;DHT22;66330;52.166;9.978;2023-11-21T01:59:01;10.30;84.60
77277;DHT22;66330;52.166;9.978;2023-11-21T02:01:26;10.80;85.90
77277;DHT22;66330;52.166;9.978;2023-11-21T02:03:52;10.60;85.00
77277;DHT22;66330;52.166;9.978;2023-11-21T02:06:18;10.20;84.50
77277;DHT22;66330;52.166;9.978;2023-11-21T02:08:44;10.70;85.20
77277;DHT22;66330;52.166;9.978;2023-11-21T02:11:10;10.80;85.40
77277;DHT22;66330;52.166;9.978;2023-11-21T02:13:39;10.80;85.40
77277;DHT22;66330;52.166;9.978;2023-11-21T02:16:10;10.90;85.40
77277;DHT22;66330;52.166;9.978;2023-11-21T02:18:38;11.00;85.40
77277;DHT22;66330;52.166;9.978;2023-11-21T02:21:04;10.80;85.00
77277;DHT22;66330;52.166;9.978;2023-11-21T02:23:30;10.40;84.50
77277;DHT22;66330;52.166;9.978;2023-11-21T02:25:56;10.60;84.70
77277;DHT22;66330;52.166;9.978;2023-11-21T02:28:22;11.00;86.00
77277;DHT22;66330;52.166;9.978;2023-11-21T02:30:51;11.00;85.10
77277;DHT22;66330;52.166;9.978;2023-11-21T02:33:21;10.90;84.90
77277;DHT22;66330;52.166;9.978;2023-11-21T02:35:47;11.00;84.70
77277;DHT22;66330;52.166;9.978;2023-11-21T02:38:13;10.90;85.00
77277;DHT22;66330;52.166;9.978;2023-11-21T02:40:39;11.00;85.00
77277;DHT22;66330;52.166;9.978;2023-11-21T02:43:04;10.90;84.90
77277;DHT22;66330;52.166;9.978;2023-11-21T02:45:31;11.00;84.80
77277;DHT22;66330;52.166;9.978;2023-11-21T02:47:57;11.20;84.90
77277;DHT22;66330;52.166;9.978;2023-11-21T02:50:24;10.90;84.50
77277;DHT22;66330;52.166;9.978;2023-11-21T02:52:49;11.10;84.80
77277;DHT22;66330;52.166;9.978;2023-11-21T02:55:15;10.80;84.50
77277;DHT22;66330;52.166;9.978;2023-11-21T02:57:41;10.40;84.20
77277;DHT22;66330;52.166;9.978;2023-11-21T03:00:07;11.00;84.80
77277;DHT22;66330;52.166;9.978;2023-11-21T03:02:33;10.80;84.70
77277;DHT22;66330;52.166;9.978;2023-11-21T03:05:02;10.80;84.90
77277;DHT22;66330;52.166;9.978;2023-11-21T03:07:27;10.80;84.90
77277;DHT22;66330;52.166;9.978;2023-11-21T03:09:53;10.40;84.60
77277;DHT22;66330;52.166;9.978;2023-11-21T03:12:19;10.70;85.00
77277;DHT22;66330;52.166;9.978;2023-11-21T03:14:45;10.60;85.00
77277;DHT22;66330;52.166;9.978;2023-11-21T03:17:10;10.40;84.70
77277;DHT22;66330;52.166;9.978;2023-11-21T03:19:37;10.60;85.00
77277;DHT22;66330;52.166;9.978;2023-11-21T03:22:02;10.50;85.00
77277;DHT22;66330;52.166;9.978;2023-11-21T03:24:29;9.90;85.70
77277;DHT22;66330;52.166;9.978;2023-11-21T03:26:55;10.40;85.30
77277;DHT22;66330;52.166;9.978;2023-11-21T03:29:20;10.40;85.40
77277;DHT22;66330;52.166;9.978;2023-11-21T03:31:46;9.90;86.30
77277;DHT22;66330;52.166;9.978;2023-11-21T03:34:16;10.00;85.30
77277;DHT22;66330;52.166;9.978;2023-11-21T03:36:42;10.20;85.60
77277;DHT22;66330;52.166;9.978;2023-11-21T03:39:07;10.20;85.60
77277;DHT22;66330;52.166;9.978;2023-11-21T03:41:33;10.40;85.90
77277;DHT22;66330;52.166;9.978;2023-11-21T03:43:59;10.30;85.80
77277;DHT22;66330;52.166;9.978;2023-11-21T03:46:24;9.90;86.80
77277;DHT22;66330;52.166;9.978;2023-11-21T03:48:50;10.10;85.80
77277;DHT22;66330;52.166;9.978;2023-11-21T03:51:16;10.40;86.20
77277;DHT22;66330;52.166;9.978;2023-11-21T03:53:42;9.80;86.70
77277;DHT22;66330;52.166;9.978;2023-11-21T03:56:07;10.30;86.20
77277;DHT22;66330;52.166;9.978;2023-11-21T03:58:33;9.70;86.90
77277;DHT22;66330;52.166;9.978;2023-11-21T04:00:59;9.90;87.20
77277;DHT22;66330;52.166;9.978;2023-11-21T04:03:25;10.20;86.40
77277;DHT22;66330;52.166;9.978;2023-11-21T04:05:50;10.30;86.60
77277;DHT22;66330;52.166;9.978;2023-11-21T04:08:16;9.40;86.90
77277;DHT22;66330;52.166;9.978;2023-11-21T04:10:41;10.30;86.70
77277;DHT22;66330;52.166;9.978;2023-11-21T04:13:07;10.10;86.60
77277;DHT22;66330;52.166;9.978;2023-11-21T04:15:33;10.20;86.90
77277;DHT22;66330;52.166;9.978;2023-11-21T04:17:58;10.30;86.60
77277;DHT22;66330;52.166;9.978;2023-11-21T04:20:24;10.30;87.20
77277;DHT22;66330;52.166;9.978;2023-11-21T04:22:50;10.20;87.10
77277;DHT22;66330;52.166;9.978;2023-11-21T04:25:16;10.30;87.30
77277;DHT22;66330;52.166;9.978;2023-11-21T04:27:42;9.60;87.90
77277;DHT22;66330;52.166;9.978;2023-11-21T04:30:12;10.20;87.30
77277;DHT22;66330;52.166;9.978;2023-11-21T04:32:38;9.60;87.90
77277;DHT22;66330;52.166;9.978;2023-11-21T04:35:10;10.00;87.30
77277;DHT22;66330;52.166;9.978;2023-11-21T04:37:36;10.10;87.50
77277;DHT22;66330;52.166;9.978;2023-11-21T04:40:02;10.10;87.60
77277;DHT22;66330;52.166;9.978;2023-11-21T04:42:33;9.70;88.40
77277;DHT22;66330;52.166;9.978;2023-11-21T04:44:58;10.10;87.70
77277;DHT22;66330;52.166;9.978;2023-11-21T04:47:24;10.30;87.90
77277;DHT22;66330;52.166;9.978;2023-11-21T04:49:49;10.00;87.60
77277;DHT22;66330;52.166;9.978;2023-11-21T04:52:15;10.30;88.00
77277;DHT22;66330;52.166;9.978;2023-11-21T04:54:40;10.20;87.40
77277;DHT22;66330;52.166;9.978;2023-11-21T04:57:06;10.20;87.80
77277;DHT22;66330;52.166;9.978;2023-11-21T04:59:35;10.30;88.00
77277;DHT22;66330;52.166;9.978;2023-11-21T05:02:01;10.30;87.90
77277;DHT22;66330;52.166;9.978;2023-11-21T05:04:26;10.00;87.60
77277;DHT22;66330;52.166;9.978;2023-11-21T05:06:52;9.60;88.60
77277;DHT22;66330;52.166;9.978;2023-11-21T05:09:18;10.20;87.90
77277;DHT22;66330;52.166;9.978;2023-11-21T05:11:46;10.20;88.00
77277;DHT22;66330;52.166;9.978;2023-11-21T05:14:12;10.20;88.10
77277;DHT22;66330;52.166;9.978;2023-11-21T05:16:38;10.20;88.10
77277;DHT22;66330;52.166;9.978;2023-11-21T05:19:04;10.30;88.30
77277;DHT22;66330;52.166;9.978;2023-11-21T05:21:30;10.20;88.30
77277;DHT22;66330;52.166;9.978;2023-11-21T05:23:59;10.30;88.40
77277;DHT22;66330;52.166;9.978;2023-11-21T05:26:25;10.20;88.40
77277;DHT22;66330;52.166;9.978;2023-11-21T05:28:50;10.30;88.40
77277;DHT22;66330;52.166;9.978;2023-11-21T05:31:16;10.20;88.30
77277;DHT22;66330;52.166;9.978;2023-11-21T05:33:42;10.30;88.40
77277;DHT22;66330;52.166;9.978;2023-11-21T05:36:08;10.30;88.60
77277;DHT22;66330;52.166;9.978;2023-11-21T05:38:35;9.80;89.20
77277;DHT22;66330;52.166;9.978;2023-11-21T05:41:04;9.90;89.30
77277;DHT22;66330;52.166;9.978;2023-11-21T05:43:30;9.90;89.20
77277;DHT22;66330;52.166;9.978;2023-11-21T05:45:57;10.50;88.70
77277;DHT22;66330;52.166;9.978;2023-11-21T05:48:23;10.30;88.50
77277;DHT22;66330;52.166;9.978;2023-11-21T05:50:49;10.40;88.80
77277;DHT22;66330;52.166;9.978;2023-11-21T05:53:17;9.80;89.30
77277;DHT22;66330;52.166;9.978;2023-11-21T05:55:42;10.30;88.70
77277;DHT22;66330;52.166;9.978;2023-11-21T05:58:08;10.30;88.70
77277;DHT22;66330;52.166;9.978;2023-11-21T06:00:34;10.40;88.80
77277;DHT22;66330;52.166;9.978;2023-11-21T06:03:00;10.20;88.60
77277;DHT22;66330;52.166;9.978;2023-11-21T06:05:26;9.80;89.20
77277;DHT22;66330;52.166;9.978;2023-11-21T06:07:52;10.30;88.70
77277;DHT22;66330;52.166;9.978;2023-11-21T06:10:20;10.30;88.70
77277;DHT22;66330;52.166;9.978;2023-11-21T06:12:47;9.80;89.40
77277;DHT22;66330;52.166;9.978;2023-11-21T06:15:12;10.10;88.60
77277;DHT22;66330;52.166;9.978;2023-11-21T06:17:39;9.90;89.80
77277;DHT22;66330;52.166;9.978;2023-11-21T06:20:09;10.10;89.00
77277;DHT22;66330;52.166;9.978;2023-11-21T06:22:40;9.60;89.80
77277;DHT22;66330;52.166;9.978;2023-11-21T06:25:06;9.60;89.90
77277;DHT22;66330;52.166;9.978;2023-11-21T06:27:33;9.60;90.00
77277;DHT22;66330;52.166;9.978;2023-11-21T06:29:59;10.10;89.40
77277;DHT22;66330;52.166;9.978;2023-11-21T06:32:25;9.70;90.10
77277;DHT22;66330;52.166;9.978;2023-11-21T06:34:51;9.40;90.00
77277;DHT22;66330;52.166;9.978;2023-11-21T06:37:20;10.10;89.60
77277;DHT22;66330;52.166;9.978;2023-11-21T06:39:48;9.90;90.30
77277;DHT22;66330;52.166;9.978;2023-11-21T06:42:14;10.00;89.70
77277;DHT22;66330;52.166;9.978;2023-11-21T06:44:40;9.60;90.20
77277;DHT22;66330;52.166;9.978;2023-11-21T06:47:07;10.10;89.90
77277;DHT22;66330;52.166;9.978;2023-11-21T06:49:32;9.60;90.20
77277;DHT22;66330;52.166;9.978;2023-11-21T06:51:58;10.00;89.90
77277;DHT22;66330;52.166;9.978;2023-11-21T06:54:24;10.00;89.90
77277;DHT22;66330;52.166;9.978;2023-11-21T06:56:50;10.10;90.00
77277;DHT22;66330;52.166;9.978;2023-11-21T06:59:16;10.10;90.00
77277;DHT22;66330;52.166;9.978;2023-11-21T07:01:41;9.90;90.50
77277;DHT22;66330;52.166;9.978;2023-11-21T07:04:07;9.50;90.20
77277;DHT22;66330;52.166;9.978;2023-11-21T07:06:34;10.00;90.10
77277;DHT22;66330;52.166;9.978;2023-11-21T07:09:00;10.10;90.10
77277;DHT22;66330;52.166;9.978;2023-11-21T07:11:27;9.10;90.20
77277;DHT22;66330;52.166;9.978;2023-11-21T07:13:52;9.30;90.40
77277;DHT22;66330;52.166;9.978;2023-11-21T07:16:18;10.10;90.20
77277;DHT22;66330;52.166;9.978;2023-11-21T07:18:44;10.00;90.10
77277;DHT22;66330;52.166;9.978;2023-11-21T07:21:10;10.10;90.20
77277;DHT22;66330;52.166;9.978;2023-11-21T07:23:38;10.00;90.20
77277;DHT22;66330;52.166;9.978;2023-11-21T07:26:03;10.20;90.30
77277;DHT22;66330;52.166;9.978;2023-11-21T07:28:34;9.60;90.70
77277;DHT22;66330;52.166;9.978;2023-11-21T07:31:00;10.20;90.50
77277;DHT22;66330;52.166;9.978;2023-11-21T07:33:25;10.40;90.60
77277;DHT22;66330;52.166;9.978;2023-11-21T07:35:51;10.30;90.50
77277;DHT22;66330;52.166;9.978;2023-11-21T07:38:17;10.30;90.40
77277;DHT22;66330;52.166;9.978;2023-11-21T07:40:43;10.60;90.80
77277;DHT22;66330;52.166;9.978;2023-11-21T07:43:09;10.00;90.10
77277;DHT22;66330;52.166;9.978;2023-11-21T07:45:36;10.40;90.10
77277;DHT22;66330;52.166;9.978;2023-11-21T07:48:01;10.60;90.00
77277;DHT22;66330;52.166;9.978;2023-11-21T07:50:29;9.90;89.90
77277;DHT22;66330;52.166;9.978;2023-11-21T07:52:54;10.70;89.40
77277;DHT22;66330;52.166;9.978;2023-11-21T07:55:20;10.20;88.70
77277;DHT22;66330;52.166;9.978;2023-11-21T07:57:46;9.80;89.50
77277;DHT22;66330;52.166;9.978;2023-11-21T08:00:12;10.00;88.60
77277;DHT22;66330;52.166;9.978;2023-11-21T08:02:41;10.10;88.70
77277;DHT22;66330;52.166;9.978;2023-11-21T08:05:08;9.90;89.80
77277;DHT22;66330;52.166;9.978;2023-11-21T08:07:34;9.40;89.30
77277;DHT22;66330;52.166;9.978;2023-11-21T08:10:00;10.00;88.70
77277;DHT22;66330;52.166;9.978;2023-11-21T08:12:25;9.90;89.80
77277;DHT22;66330;52.166;9.978;2023-11-21T08:14:53;9.70;89.70
77277;DHT22;66330;52.166;9.978;2023-11-21T08:17:18;9.70;89.60
77277;DHT22;66330;52.166;9.978;2023-11-21T08:19:45;9.80;89.80
77277;DHT22;66330;52.166;9.978;2023-11-21T08:22:15;9.70;89.70
77277;DHT22;66330;52.166;9.978;2023-11-21T08:24:41;9.10;89.90
77277;DHT22;66330;52.166;9.978;2023-11-21T08:27:07;9.60;89.80
77277;DHT22;66330;52.166;9.978;2023-11-21T08:29:32;9.40;89.70
77277;DHT22;66330;52.166;9.978;2023-11-21T08:31:58;9.60;90.00
77277;DHT22;66330;52.166;9.978;2023-11-21T08:34:25;9.60;89.90
77277;DHT22;66330;52.166;9.978;2023-11-21T08:36:51;9.50;89.80
77277;DHT22;66330;52.166;9.978;2023-11-21T08:39:16;9.30;89.60
77277;DHT22;66330;52.166;9.978;2023-11-21T08:41:44;9.60;89.90
77277;DHT22;66330;52.166;9.978;2023-11-21T08:44:10;9.50;89.80
77277;DHT22;66330;52.166;9.978;2023-11-21T08:46:36;9.00;89.30
77277;DHT22;66330;52.166;9.978;2023-11-21T08:49:03;8.90;89.20
77277;DHT22;66330;52.166;9.978;2023-11-21T08:51:29;8.80;89.30
77277;DHT22;66330;52.166;9.978;2023-11-21T08:53:54;9.40;90.00
77277;DHT22;66330;52.166;9.978;2023-11-21T08:56:24;9.30;90.00
77277;DHT22;66330;52.166;9.978;2023-11-21T08:58:50;9.50;90.10
77277;DHT22;66330;52.166;9.978;2023-11-21T09:01:16;9.30;90.00
77277;DHT22;66330;52.166;9.978;2023-11-21T09:03:42;9.40;90.10
77277;DHT22;66330;52.166;9.978;2023-11-21T09:06:09;8.90;89.80
77277;DHT22;66330;52.166;9.978;2023-11-21T09:08:35;9.40;90.10
77277;DHT22;66330;52.166;9.978;2023-11-21T09:11:01;9.50;90.10
77277;DHT22;66330;52.166;9.978;2023-11-21T09:13:26;9.40;90.10
77277;DHT22;66330;52.166;9.978;2023-11-21T09:15:52;9.10;89.80
77277;DHT22;66330;52.166;9.978;2023-11-21T09:18:18;9.10;89.80
77277;DHT22;66330;52.166;9.978;2023-11-21T09:20:44;9.50;89.80
77277;DHT22;66330;52.166;9.978;2023-11-21T09:23:10;8.80;89.10
77277;DHT22;66330;52.166;9.978;2023-11-21T09:25:35;9.70;90.00
77277;DHT22;66330;52.166;9.978;2023-11-21T09:28:06;9.40;89.70
77277;DHT22;66330;52.166;9.978;2023-11-21T09:30:35;9.00;89.20
77277;DHT22;66330;52.166;9.978;2023-11-21T09:33:01;9.50;89.60
77277;DHT22;66330;52.166;9.978;2023-11-21T09:35:27;9.10;89.00
77277;DHT22;66330;52.166;9.978;2023-11-21T09:37:53;9.40;89.30
77277;DHT22;66330;52.166;9.978;2023-11-21T09:40:22;9.50;89.60
77277;DHT22;66330;52.166;9.978;2023-11-21T09:42:53;9.30;89.40
77277;DHT22;66330;52.166;9.978;2023-11-21T09:45:29;9.50;89.70
77277;DHT22;66330;52.166;9.978;2023-11-21T09:47:57;9.10;89.40
77277;DHT22;66330;52.166;9.978;2023-11-21T09:50:23;9.60;89.70
77277;DHT22;66330;52.166;9.978;2023-11-21T09:55:36;9.00;88.90
77277;DHT22;66330;52.166;9.978;2023-11-21T09:58:04;9.50;89.30
77277;DHT22;66330;52.166;9.978;2023-11-21T10:00:33;9.60;89.20
77277;DHT22;66330;52.166;9.978;2023-11-21T10:02:59;9.20;88.50
77277;DHT22;66330;52.166;9.978;2023-11-21T10:05:25;9.20;88.10
77277;DHT22;66330;52.166;9.978;2023-11-21T10:07:51;9.60;87.90
77277;DHT22;66330;52.166;9.978;2023-11-21T10:10:19;9.30;87.10
77277;DHT22;66330;52.166;9.978;2023-11-21T10:12:49;9.60;87.00
77277;DHT22;66330;52.166;9.978;2023-11-21T10:15:21;9.30;86.40
77277;DHT22;66330;52.166;9.978;2023-11-21T10:17:49;9.80;86.80
77277;DHT22;66330;52.166;9.978;2023-11-21T10:20:16;9.90;86.90
77277;DHT22;66330;52.166;9.978;2023-11-21T10:22:42;9.60;86.40
77277;DHT22;66330;52.166;9.978;2023-11-21T10:25:12;10.20;85.60
77277;DHT22;66330;52.166;9.978;2023-11-21T10:27:42;10.30;85.40
77277;DHT22;66330;52.166;9.978;2023-11-21T10:30:09;10.50;84.90
77277;DHT22;66330;52.166;9.978;2023-11-21T10:32:41;9.80;85.00
77277;DHT22;66330;52.166;9.978;2023-11-21T10:35:08;10.60;84.30
77277;DHT22;66330;52.166;9.978;2023-11-21T10:37:41;10.50;84.10
77277;DHT22;66330;52.166;9.978;2023-11-21T10:40:09;10.70;84.10
77277;DHT22;66330;52.166;9.978;2023-11-21T10:42:40;10.20;83.40
77277;DHT22;66330;52.166;9.978;2023-11-21T10:45:07;10.10;83.10
77277;DHT22;66330;52.166;9.978;2023-11-21T10:47:40;10.10;82.70
77277;DHT22;66330;52.166;9.978;2023-11-21T10:50:07;10.70;83.00
77277;DHT22;66330;52.166;9.978;2023-11-21T10:52:39;10.10;82.10
77277;DHT22;66330;52.166;9.978;2023-11-21T10:55:25;10.50;82.50
77277;DHT22;66330;52.166;9.978;2023-11-21T10:57:53;10.00;81.90
77277;DHT22;66330;52.166;9.978;2023-11-21T11:00:19;10.30;82.10
77277;DHT22;66330;52.166;9.978;2023-11-21T11:02:49;10.10;81.40
77277;DHT22;66330;52.166;9.978;2023-11-21T11:05:19;10.50;81.70
77277;DHT22;66330;52.166;9.978;2023-11-21T11:07:45;10.10;81.20
77277;DHT22;66330;52.166;9.978;2023-11-21T11:10:13;10.60;81.60
77277;DHT22;66330;52.166;9.978;2023-11-21T11:12:43;10.80;81.70
77277;DHT22;66330;52.166;9.978;2023-11-21T11:15:11;10.10;80.80
77277;DHT22;66330;52.166;9.978;2023-11-21T11:17:37;10.60;81.10
77277;DHT22;66330;52.166;9.978;2023-11-21T11:20:08;10.20;80.40
77277;DHT22;66330;52.166;9.978;2023-11-21T11:25:44;10.20;80.10
77277;DHT22;66330;52.166;9.978;2023-11-21T11:28:29;10.80;80.60
77277;DHT22;66330;52.166;9.978;2023-11-21T11:31:27;10.70;80.40
77277;DHT22;66330;52.166;9.978;2023-11-21T11:34:01;10.70;80.40
77277;DHT22;66330;52.166;9.978;2023-11-21T11:36:35;10.30;79.90
77277;DHT22;66330;52.166;9.978;2023-11-21T11:39:03;10.50;79.80
77277;DHT22;66330;52.166;9.978;2023-11-21T11:41:31;10.40;79.50
77277;DHT22;66330;52.166;9.978;2023-11-21T11:44:02;10.90;79.90
77277;DHT22;66330;52.166;9.978;2023-11-21T11:46:44;10.60;79.50
77277;DHT22;66330;52.166;9.978;2023-11-21T11:49:32;10.70;79.20
77277;DHT22;66330;52.166;9.978;2023-11-21T11:52:32;11.10;79.20
77277;DHT22;66330;52.166;9.978;2023-11-21T11:55:00;10.70;78.40
77277;DHT22;66330;52.166;9.978;2023-11-21T11:57:26;10.70;78.20
77277;DHT22;66330;52.166;9.978;2023-11-21T12:00:22;11.40;78.90
77277;DHT22;66330;52.166;9.978;2023-11-21T12:02:57;11.00;78.40
77277;DHT22;66330;52.166;9.978;2023-11-21T12:05:25;11.30;78.30
77277;DHT22;66330;52.166;9.978;2023-11-21T12:07:54;11.60;78.50
77277;DHT22;66330;52.166;9.978;2023-11-21T12:10:25;11.50;77.90
77277;DHT22;66330;52.166;9.978;2023-11-21T12:12:52;11.10;77.30
77277;DHT22;66330;52.166;9.978;2023-11-21T12:15:18;11.60;77.60
77277;DHT22;66330;52.166;9.978;2023-11-21T12:17:45;11.10;76.80
77277;DHT22;66330;52.166;9.978;2023-11-21T12:20:12;11.70;77.50
77277;DHT22;66330;52.166;9.978;2023-11-21T12:22:53;11.10;76.60
77277;DHT22;66330;52.166;9.978;2023-11-21T12:25:23;11.70;77.10
77277;DHT22;66330;52.166;9.978;2023-11-21T12:27:53;11.50;76.80
77277;DHT22;66330;52.166;9.978;2023-11-21T12:30:20;11.70;77.10
77277;DHT22;66330;52.166;9.978;2023-11-21T12:32:51;11.40;76.50
77277;DHT22;66330;52.166;9.978;2023-11-21T12:35:18;12.00;76.70
77277;DHT22;66330;52.166;9.978;2023-11-21T12:37:48;12.00;76.40
77277;DHT22;66330;52.166;9.978;2023-11-21T12:40:15;12.30;76.10
77277;DHT22;66330;52.166;9.978;2023-11-21T12:42:42;12.40;75.80
77277;DHT22;66330;52.166;9.978;2023-11-21T12:47:44;11.80;73.90
77277;DHT22;66330;52.166;9.978;2023-11-21T12:50:13;12.30;74.20
77277;DHT22;66330;52.166;9.978;2023-11-21T12:52:45;12.20;73.60
77277;DHT22;66330;52.166;9.978;2023-11-21T12:55:21;12.10;73.50
77277;DHT22;66330;52.166;9.978;2023-11-21T12:57:49;11.50;73.00
77277;DHT22;66330;52.166;9.978;2023-11-21T13:00:27;11.40;73.10
77277;DHT22;66330;52.166;9.978;2023-11-21T13:02:57;10.90;72.40
77277;DHT22;66330;52.166;9.978;2023-11-21T13:05:25;11.20;72.80
77277;DHT22;66330;52.166;9.978;2023-11-21T13:07:51;11.50;73.30
77277;DHT22;66330;52.166;9.978;2023-11-21T13:10:22;10.80;72.60
77277;DHT22;66330;52.166;9.978;2023-11-21T13:12:52;11.50;73.50
77277;DHT22;66330;52.166;9.978;2023-11-21T13:15:18;11.50;73.70
77277;DHT22;66330;52.166;9.978;2023-11-21T13:17:44;11.50;74.00
77277;DHT22;66330;52.166;9.978;2023-11-21T13:20:11;11.40;73.90
77277;DHT22;66330;52.166;9.978;2023-11-21T13:22:55;11.30;73.60
77277;DHT22;66330;52.166;9.978;2023-11-21T13:25:28;11.10;73.50
77277;DHT22;66330;52.166;9.978;2023-11-21T13:27:55;11.30;73.60
77277;DHT22;66330;52.166;9.978;2023-11-21T13:30:21;11.70;73.80
77277;DHT22;66330;52.166;9.978;2023-11-21T13:32:56;11.40;73.60
77277;DHT22;66330;52.166;9.978;2023-11-21T13:35:23;11.30;73.40
77277;DHT22;66330;52.166;9.978;2023-11-21T13:38:09;10.70;72.60
77277;DHT22;66330;52.166;9.978;2023-11-21T13:40:36;11.20;73.30
77277;DHT22;66330;52.166;9.978;2023-11-21T13:43:24;11.20;73.40
77277;DHT22;66330;52.166;9.978;2023-11-21T13:45:52;11.00;73.40
77277;DHT22;66330;52.166;9.978;2023-11-21T13:48:26;11.10;73.50
77277;DHT22;66330;52.166;9.978;2023-11-21T13:51:06;11.00;73.30
77277;DHT22;66330;52.166;9.978;2023-11-21T13:53:44;10.90;73.30
77277;DHT22;66330;52.166;9.978;2023-11-21T13:56:11;11.10;73.50
77277;DHT22;66330;52.166;9.978;2023-11-21T13:58:38;10.90;73.20
77277;DHT22;66330;52.166;9.978;2023-11-21T14:01:22;10.90;73.40
77277;DHT22;66330;52.166;9.978;2023-11-21T14:04:00;10.90;73.50
77277;DHT22;66330;52.166;9.978;2023-11-21T14:06:43;10.30;72.90
77277;DHT22;66330;52.166;9.978;2023-11-21T14:09:19;10.80;73.30
77277;DHT22;66330;52.166;9.978;2023-11-21T14:11:55;10.20;72.70
77277;DHT22;66330;52.166;9.978;2023-11-21T14:14:24;10.60;73.30
77277;DHT22;66330;52.166;9.978;2023-11-21T14:16:51;10.70;73.50
77277;DHT22;66330;52.166;9.978;2023-11-21T14:19:17;10.80;73.60
77277;DHT22;66330;52.166;9.978;2023-11-21T14:21:46;10.00;72.60
77277;DHT22;66330;52.166;9.978;2023-11-21T14:24:14;10.60;73.40
77277;DHT22;66330;52.166;9.978;2023-11-21T14:26:44;10.60;73.40
77277;DHT22;66330;52.166;9.978;2023-11-21T14:29:11;10.50;73.40
77277;DHT22;66330;52.166;9.978;2023-11-21T14:31:40;10.40;73.30
77277;DHT22;66330;52.166;9.978;2023-11-21T14:34:06;10.30;73.30
77277;DHT22;66330;52.166;9.978;2023-11-21T14:36:33;10.30;73.40
77277;DHT22;66330;52.166;9.978;2023-11-21T14:38:59;10.10;73.10
77277;DHT22;66330;52.166;9.978;2023-11-21T14:41:24;9.60;73.80
77277;DHT22;66330;52.166;9.978;2023-11-21T14:43:51;9.90;74.10
77277;DHT22;66330;52.166;9.978;2023-11-21T14:46:16;10.00;73.00
77277;DHT22;66330;52.166;9.978;2023-11-21T14:48:45;9.90;74.10
77277;DHT22;66330;52.166;9.978;2023-11-21T14:51:25;9.30;73.50
77277;DHT22;66330;52.166;9.978;2023-11-21T14:53:50;9.80;74.10
77277;DHT22;66330;52.166;9.978;2023-11-21T14:56:22;9.90;74.30
77277;DHT22;66330;52.166;9.978;2023-11-21T14:59:00;9.40;73.80
77277;DHT22;66330;52.166;9.978;2023-11-21T15:01:34;9.80;74.30
77277;DHT22;66330;52.166;9.978;2023-11-21T15:04:21;9.80;74.40
77277;DHT22;66330;52.166;9.978;2023-11-21T15:07:04;9.90;74.70
77277;DHT22;66330;52.166;9.978;2023-11-21T15:09:30;9.10;74.00
77277;DHT22;66330;52.166;9.978;2023-11-21T15:11:59;9.70;74.80
77277;DHT22;66330;52.166;9.978;2023-11-21T15:14:37;8.90;74.00
77277;DHT22;66330;52.166;9.978;2023-11-21T15:17:03;9.70;74.80
77277;DHT22;66330;52.166;9.978;2023-11-21T15:19:29;9.50;74.70
77277;DHT22;66330;52.166;9.978;2023-11-21T15:21:57;9.70;75.20
77277;DHT22;66330;52.166;9.978;2023-11-21T15:24:23;9.60;75.00
77277;DHT22;66330;52.166;9.978;2023-11-21T15:26:49;9.60;75.00
77277;DHT22;66330;52.166;9.978;2023-11-21T15:29:15;9.40;74.90
77277;DHT22;66330;52.166;9.978;2023-11-21T15:31:42;9.50;74.90
77277;DHT22;66330;52.166;9.978;2023-11-21T15:34:16;8.90;74.30
77277;DHT22;66330;52.166;9.978;2023-11-21T15:36:42;9.40;75.00
77277;DHT22;66330;52.166;9.978;2023-11-21T15:39:08;9.00;74.50
77277;DHT22;66330;52.166;9.978;2023-11-21T15:41:37;9.30;74.80
77277;DHT22;66330;52.166;9.978;2023-11-21T15:44:04;8.70;74.30
77277;DHT22;66330;52.166;9.978;2023-11-21T15:46:30;8.70;74.40
77277;DHT22;66330;52.166;9.978;2023-11-21T15:48:56;9.30;75.10